createdAt,value
2023-03-13T00:00:48.400Z,4.90
2023-03-13T00:01:53.134Z,4.03
2023-03-13T00:03:06.166Z,4.13
2023-03-13T00:04:09.633Z,4.25
2023-03-13T00:05:15.304Z,5.35
2023-03-13T00:06:18.975Z,4.47
2023-03-13T00:07:23.048Z,4.60
2023-03-13T00:08:33.524Z,4.30
2023-03-13T00:10:45.198Z,3.53
2023-03-13T00:11:48.092Z,5.85
2023-03-13T00:12:51.855Z,3.92
2023-03-13T00:13:58.540Z,4.88
2023-03-13T00:15:02.547Z,4.82
2023-03-13T00:16:19.555Z,4.15
2023-03-13T00:17:22.686Z,4.40
2023-03-13T00:18:27.361Z,4.00
2023-03-13T00:19:32.124Z,3.95
2023-03-13T00:20:36.116Z,3.72
2023-03-13T00:21:43.188Z,4.82
2023-03-13T00:22:48.367Z,4.32
2023-03-13T00:23:55.144Z,3.63
2023-03-13T00:24:59.469Z,4.55
2023-03-13T00:26:12.300Z,4.05
2023-03-13T00:27:20.805Z,4.20
2023-03-13T00:28:28.989Z,3.92
2023-03-13T00:29:34.390Z,3.22
2023-03-13T00:30:38.169Z,5.53
2023-03-13T00:31:42.084Z,4.43
2023-03-13T00:32:49.531Z,3.55
2023-03-13T00:33:55.702Z,5.90
2023-03-13T00:35:00.087Z,3.75
2023-03-13T00:36:08.440Z,4.18
2023-03-13T00:37:11.182Z,4.05
2023-03-13T00:38:14.843Z,4.68
2023-03-13T00:39:18.000Z,4.38
2023-03-13T00:40:26.111Z,3.90
2023-03-13T00:41:31.487Z,4.45
2023-03-13T00:42:36.558Z,3.97
2023-03-13T00:43:44.400Z,3.80
2023-03-13T00:44:47.447Z,3.90
2023-03-13T00:45:53.200Z,4.53
2023-03-13T00:46:56.211Z,5.32
2023-03-13T00:48:01.693Z,4.88
2023-03-13T00:49:09.177Z,3.63
2023-03-13T00:50:15.216Z,4.55
2023-03-13T00:51:23.834Z,4.47
2023-03-13T00:52:29.384Z,4.50
2023-03-13T00:53:32.362Z,4.65
2023-03-13T00:54:36.593Z,4.47
2023-03-13T00:55:39.423Z,5.20
2023-03-13T00:56:48.076Z,5.30
2023-03-13T00:57:56.883Z,4.32
2023-03-13T00:59:01.695Z,4.78
2023-03-13T01:00:10.472Z,5.47
2023-03-13T01:01:28.435Z,4.38
2023-03-13T01:02:34.253Z,3.83
2023-03-13T01:03:39.080Z,4.03
2023-03-13T01:04:45.966Z,3.33
2023-03-13T01:06:03.480Z,6.32
2023-03-13T01:07:06.815Z,6.35
2023-03-13T01:08:09.960Z,5.03
2023-03-13T01:09:16.234Z,4.10
2023-03-13T01:10:23.669Z,5.30
2023-03-13T01:11:29.870Z,4.60
2023-03-13T01:12:33.847Z,4.32
2023-03-13T01:13:38.232Z,4.63
2023-03-13T01:14:42.137Z,4.07
2023-03-13T01:15:45.721Z,4.15
2023-03-13T01:16:50.240Z,4.57
2023-03-13T01:17:55.243Z,4.30
2023-03-13T01:19:06.627Z,5.45
2023-03-13T01:20:12.993Z,5.03
2023-03-13T01:21:20.215Z,5.43
2023-03-13T01:22:24.482Z,7.25
2023-03-13T01:23:33.809Z,6.32
2023-03-13T01:24:39.827Z,6.78
2023-03-13T01:25:43.413Z,6.53
2023-03-13T01:26:47.761Z,5.90
2023-03-13T01:27:51.742Z,6.57
2023-03-13T01:28:59.104Z,5.25
2023-03-13T01:30:03.911Z,5.47
2023-03-13T01:31:16.531Z,5.65
2023-03-13T01:32:20.035Z,7.78
2023-03-13T01:33:23.784Z,6.10
2023-03-13T01:34:27.525Z,6.45
2023-03-13T01:35:36.050Z,4.72
2023-03-13T01:36:39.508Z,4.63
2023-03-13T01:37:42.810Z,5.93
2023-03-13T01:38:54.562Z,4.85
2023-03-13T01:39:57.517Z,4.70
2023-03-13T01:41:00.873Z,3.88
2023-03-13T01:42:06.749Z,5.15
2023-03-13T01:43:27.315Z,5.05
2023-03-13T01:44:55.925Z,6.15
2023-03-13T01:46:05.220Z,6.10
2023-03-13T01:47:19.549Z,5.97
2023-03-13T01:48:43.182Z,8.68
2023-03-13T01:49:49.889Z,6.05
2023-03-13T01:51:12.254Z,5.32
2023-03-13T01:52:24.017Z,6.32
2023-03-13T01:53:36.052Z,6.70
2023-03-13T01:54:46.344Z,7.00
2023-03-13T01:55:53.633Z,5.47
2023-03-13T01:57:02.477Z,5.70
2023-03-13T01:58:08.200Z,5.90
2023-03-13T01:59:15.869Z,4.82
2023-03-13T02:00:30.588Z,6.30
2023-03-13T02:01:34.646Z,5.35
2023-03-13T02:02:49.109Z,11.52
2023-03-13T02:03:54.041Z,6.03
2023-03-13T02:05:01.679Z,5.40
2023-03-13T02:06:07.601Z,5.60
2023-03-13T02:07:17.697Z,5.13
2023-03-13T02:08:26.242Z,5.72
2023-03-13T02:09:33.095Z,6.32
2023-03-13T02:10:46.727Z,5.57
2023-03-13T02:12:02.890Z,5.47
2023-03-13T02:13:07.818Z,6.60
2023-03-13T02:14:13.474Z,6.45
2023-03-13T02:15:21.804Z,5.70
2023-03-13T02:16:26.207Z,8.13
2023-03-13T02:17:30.695Z,10.65
2023-03-13T02:18:41.059Z,13.38
2023-03-13T02:19:54.796Z,13.70
2023-03-13T02:21:12.106Z,14.25
2023-03-13T02:22:32.300Z,15.90
2023-03-13T02:23:52.362Z,15.13
2023-03-13T02:25:25.066Z,15.98
2023-03-13T02:26:35.916Z,13.13
2023-03-13T02:27:45.827Z,14.55
2023-03-13T02:28:51.004Z,14.52
2023-03-13T02:29:55.452Z,13.23
2023-03-13T02:30:59.717Z,16.35
2023-03-13T02:32:03.910Z,15.82
2023-03-13T02:33:07.705Z,16.55
2023-03-13T02:34:13.106Z,22.40
2023-03-13T02:35:20.202Z,23.42
2023-03-13T02:36:24.161Z,22.45
2023-03-13T02:37:33.826Z,19.52
2023-03-13T02:38:54.538Z,19.98
2023-03-13T02:40:04.013Z,18.65
2023-03-13T02:41:10.104Z,13.27
2023-03-13T02:42:16.480Z,12.43
2023-03-13T02:43:31.586Z,11.25
2023-03-13T02:44:45.194Z,8.70
2023-03-13T02:46:06.482Z,8.50
2023-03-13T02:47:12.537Z,8.40
2023-03-13T02:48:15.829Z,7.30
2023-03-13T02:49:25.279Z,5.55
2023-03-13T02:50:29.910Z,6.65
2023-03-13T02:51:41.809Z,4.47
2023-03-13T02:52:56.587Z,6.45
2023-03-13T02:54:09.804Z,10.52
2023-03-13T02:55:25.643Z,5.88
2023-03-13T02:56:34.167Z,4.75
2023-03-13T02:57:37.243Z,6.03
2023-03-13T02:58:49.847Z,6.22
2023-03-13T02:59:59.643Z,6.53
2023-03-13T03:01:08.700Z,4.80
2023-03-13T03:02:14.611Z,6.10
2023-03-13T03:03:18.694Z,5.60
2023-03-13T03:04:25.249Z,6.22
2023-03-13T03:05:32.346Z,4.68
2023-03-13T03:06:39.162Z,4.75
2023-03-13T03:07:44.785Z,5.40
2023-03-13T03:08:48.221Z,4.97
2023-03-13T03:09:55.588Z,4.47
2023-03-13T03:10:59.226Z,4.60
2023-03-13T03:12:02.955Z,6.15
2023-03-13T03:13:06.918Z,5.05
2023-03-13T03:14:12.769Z,6.32
2023-03-13T03:15:21.642Z,4.18
2023-03-13T03:16:25.413Z,6.07
2023-03-13T03:17:29.555Z,5.65
2023-03-13T03:18:34.661Z,4.70
2023-03-13T03:19:44.000Z,5.13
2023-03-13T03:20:47.052Z,5.75
2023-03-13T03:21:50.399Z,5.07
2023-03-13T03:22:55.483Z,4.88
2023-03-13T03:23:58.629Z,4.90
2023-03-13T03:25:01.980Z,5.50
2023-03-13T03:26:07.927Z,5.10
2023-03-13T03:27:12.082Z,4.40
2023-03-13T03:28:23.145Z,7.43
2023-03-13T03:29:26.013Z,5.15
2023-03-13T03:30:31.119Z,5.82
2023-03-13T03:31:36.387Z,5.32
2023-03-13T03:32:41.915Z,4.28
2023-03-13T03:33:45.019Z,6.20
2023-03-13T03:34:53.949Z,4.13
2023-03-13T03:36:07.025Z,5.50
2023-03-13T03:37:10.768Z,5.80
2023-03-13T03:38:18.532Z,4.55
2023-03-13T03:39:24.318Z,5.32
2023-03-13T03:40:29.011Z,5.95
2023-03-13T03:41:36.410Z,4.80
2023-03-13T03:42:40.215Z,4.20
2023-03-13T03:43:43.559Z,5.47
2023-03-13T03:44:48.998Z,7.50
2023-03-13T03:45:53.470Z,4.95
2023-03-13T03:46:57.509Z,4.15
2023-03-13T03:48:03.056Z,5.30
2023-03-13T03:49:07.038Z,7.70
2023-03-13T03:50:12.211Z,7.00
2023-03-13T03:51:24.542Z,4.72
2023-03-13T03:52:27.706Z,8.10
2023-03-13T03:53:33.556Z,5.72
2023-03-13T03:54:36.735Z,4.97
2023-03-13T03:55:40.725Z,7.90
2023-03-13T03:56:44.468Z,7.00
2023-03-13T03:57:47.223Z,6.70
2023-03-13T03:58:56.489Z,4.65
2023-03-13T04:00:15.993Z,5.22
2023-03-13T04:01:28.100Z,5.38
2023-03-13T04:02:31.989Z,8.73
2023-03-13T04:03:36.277Z,4.60
2023-03-13T04:04:40.017Z,6.25
2023-03-13T04:05:50.231Z,5.43
2023-03-13T04:06:54.341Z,5.20
2023-03-13T04:09:05.377Z,4.72
2023-03-13T04:10:09.559Z,4.85
2023-03-13T04:11:18.717Z,4.35
2023-03-13T04:12:26.687Z,6.05
2023-03-13T04:13:33.789Z,6.80
2023-03-13T04:14:40.480Z,12.52
2023-03-13T04:15:49.009Z,6.20
2023-03-13T04:16:55.434Z,6.03
2023-03-13T04:17:58.877Z,4.57
2023-03-13T04:19:05.138Z,5.63
2023-03-13T04:20:11.426Z,5.00
2023-03-13T04:21:15.511Z,5.45
2023-03-13T04:22:36.228Z,6.10
2023-03-13T04:23:40.506Z,5.20
2023-03-13T04:24:43.742Z,5.80
2023-03-13T04:25:46.420Z,5.68
2023-03-13T04:26:50.952Z,5.03
2023-03-13T04:27:53.898Z,5.10
2023-03-13T04:29:01.540Z,6.32
2023-03-13T04:30:20.824Z,5.78
2023-03-13T04:31:42.491Z,5.97
2023-03-13T04:33:06.519Z,6.63
2023-03-13T04:34:27.839Z,4.65
2023-03-13T04:35:43.478Z,4.95
2023-03-13T04:37:26.266Z,7.10
2023-03-13T04:38:42.544Z,4.43
2023-03-13T04:40:00.730Z,6.10
2023-03-13T04:41:21.947Z,3.88
2023-03-13T04:42:42.603Z,5.35
2023-03-13T04:43:56.409Z,4.72
2023-03-13T04:45:22.438Z,5.70
2023-03-13T04:46:27.255Z,6.78
2023-03-13T04:47:49.719Z,4.65
2023-03-13T04:49:17.927Z,5.90
2023-03-13T04:50:49.055Z,5.18
2023-03-13T04:52:07.033Z,6.93
2023-03-13T04:53:30.928Z,6.68
2023-03-13T04:54:41.038Z,4.50
2023-03-13T04:55:53.493Z,4.60
2023-03-13T04:57:13.841Z,8.80
2023-03-13T04:58:44.966Z,5.05
2023-03-13T05:00:06.806Z,5.97
2023-03-13T05:01:19.627Z,5.93
2023-03-13T05:02:38.532Z,5.25
2023-03-13T05:04:04.013Z,6.28
2023-03-13T05:05:30.155Z,8.85
2023-03-13T05:08:18.885Z,6.88
2023-03-13T05:09:51.233Z,7.90
2023-03-13T05:11:15.406Z,4.88
2023-03-13T05:12:50.714Z,7.22
2023-03-13T05:14:16.112Z,6.70
2023-03-13T05:15:58.960Z,5.63
2023-03-13T05:17:43.213Z,4.20
2023-03-13T05:19:07.418Z,5.32
2023-03-13T05:20:36.065Z,5.10
2023-03-13T05:22:05.754Z,5.22
2023-03-13T05:23:35.136Z,5.15
2023-03-13T05:26:56.146Z,6.05
2023-03-13T05:28:30.660Z,4.72
2023-03-13T05:30:03.869Z,4.88
2023-03-13T05:31:45.842Z,5.40
2023-03-13T05:36:41.571Z,4.80
2023-03-13T05:41:15.293Z,6.97
2023-03-13T06:24:56.341Z,4.93
2023-03-13T06:26:31.785Z,8.05
2023-03-13T06:27:47.781Z,7.20
2023-03-13T06:29:03.082Z,7.13
2023-03-13T06:32:37.566Z,8.32
2023-03-13T06:34:03.958Z,9.43
2023-03-13T06:35:15.597Z,10.02
2023-03-13T07:51:42.556Z,6.55
2023-03-13T07:52:45.890Z,6.43
2023-03-13T07:53:47.944Z,8.02
2023-03-13T07:54:50.182Z,6.93
2023-03-13T07:55:54.111Z,5.22
2023-03-13T07:56:58.454Z,5.43
2023-03-13T07:58:00.345Z,6.93
2023-03-13T07:59:02.403Z,6.90
2023-03-13T08:00:06.879Z,4.82
2023-03-13T08:01:19.135Z,6.10
2023-03-13T08:02:21.254Z,6.13
2023-03-13T08:03:24.415Z,7.10
2023-03-13T08:04:26.637Z,4.47
2023-03-13T08:05:28.887Z,8.90
2023-03-13T08:06:34.219Z,5.32
2023-03-13T08:07:37.405Z,6.45
2023-03-13T08:08:47.675Z,4.40
2023-03-13T08:10:01.663Z,5.13
2023-03-13T08:11:13.385Z,9.10
2023-03-13T08:12:15.592Z,5.25
2023-03-13T08:13:26.119Z,6.25
2023-03-13T08:14:59.279Z,4.65
2023-03-13T08:16:11.463Z,7.13
2023-03-13T08:17:16.719Z,6.22
2023-03-13T08:18:19.896Z,4.85
2023-03-13T08:20:15.817Z,5.57
2023-03-13T08:21:23.029Z,5.70
2023-03-13T08:22:25.350Z,5.95
2023-03-13T08:23:28.032Z,4.97
2023-03-13T08:24:33.500Z,8.07
2023-03-13T08:25:40.047Z,4.82
2023-03-13T08:26:44.020Z,9.77
2023-03-13T08:27:47.358Z,5.55
2023-03-13T08:28:57.477Z,5.53
2023-03-13T08:30:03.021Z,7.72
2023-03-13T08:31:17.344Z,5.50
2023-03-13T08:32:20.083Z,5.95
2023-03-13T08:33:23.890Z,5.03
2023-03-13T08:34:26.606Z,4.78
2023-03-13T08:35:31.193Z,8.05
2023-03-13T08:36:35.883Z,6.22
2023-03-13T08:37:42.294Z,5.13
2023-03-13T08:38:50.771Z,7.65
2023-03-13T08:39:56.507Z,5.07
2023-03-13T08:40:59.641Z,7.70
2023-03-13T08:42:03.216Z,7.25
2023-03-13T08:43:08.157Z,5.90
2023-03-13T08:44:16.923Z,4.75
2023-03-13T08:45:19.517Z,7.47
2023-03-13T08:46:23.843Z,5.07
2023-03-13T08:47:26.793Z,5.88
2023-03-13T08:48:32.294Z,6.03
2023-03-13T08:49:35.535Z,4.55
2023-03-13T08:50:37.736Z,5.30
2023-03-13T08:51:41.272Z,3.92
2023-03-13T08:52:47.041Z,4.22
2023-03-13T08:53:50.350Z,6.30
2023-03-13T08:54:54.980Z,4.35
2023-03-13T08:55:59.832Z,4.82
2023-03-13T08:58:32.733Z,4.88
2023-03-13T08:59:35.915Z,4.97
2023-03-13T09:00:40.194Z,4.97
2023-03-13T09:01:44.335Z,4.63
2023-03-13T09:02:47.008Z,6.35
2023-03-13T09:03:49.662Z,7.82
2023-03-13T09:04:53.748Z,7.10
2023-03-13T09:05:58.950Z,5.55
2023-03-13T09:07:05.800Z,5.38
2023-03-13T09:08:12.011Z,6.35
2023-03-13T09:09:15.059Z,4.45
2023-03-13T09:10:18.562Z,5.43
2023-03-13T09:11:24.441Z,6.60
2023-03-13T09:12:33.965Z,4.85
2023-03-13T09:13:39.904Z,5.65
2023-03-13T09:14:45.423Z,5.55
2023-03-13T09:15:55.556Z,7.65
2023-03-13T09:16:59.680Z,13.15
2023-03-13T09:18:03.992Z,5.43
2023-03-13T09:19:07.249Z,7.47
2023-03-13T09:20:14.012Z,5.03
2023-03-13T09:21:27.855Z,8.68
2023-03-13T09:22:32.199Z,10.50
2023-03-13T09:23:36.736Z,5.03
2023-03-13T09:24:42.460Z,6.22
2023-03-13T09:25:46.146Z,8.20
2023-03-13T09:27:00.676Z,6.40
2023-03-13T09:28:04.824Z,6.30
2023-03-13T09:29:07.631Z,8.10
2023-03-13T09:30:13.391Z,6.57
2023-03-13T09:31:19.710Z,8.57
2023-03-13T09:32:24.492Z,5.45
2023-03-13T09:33:27.869Z,9.02
2023-03-13T09:34:32.561Z,7.82
2023-03-13T09:35:39.981Z,7.45
2023-03-13T09:36:45.708Z,6.65
2023-03-13T09:37:50.678Z,4.75
2023-03-13T09:38:59.816Z,10.50
2023-03-13T09:40:08.712Z,7.15
2023-03-13T09:41:37.097Z,9.68
2023-03-13T09:42:50.769Z,7.43
2023-03-13T09:44:15.287Z,5.32
2023-03-13T09:45:33.080Z,7.30
2023-03-13T09:46:46.347Z,6.53
2023-03-13T09:48:13.496Z,7.13
2023-03-13T09:49:41.321Z,7.35
2023-03-13T09:51:13.897Z,7.35
2023-03-13T09:52:23.536Z,6.68
2023-03-13T09:53:40.819Z,7.93
2023-03-13T09:55:54.901Z,4.93
2023-03-13T09:57:13.909Z,6.45
2023-03-13T09:58:23.713Z,6.72
2023-03-13T09:59:29.560Z,6.88
2023-03-13T10:00:36.921Z,7.82
2023-03-13T10:01:42.709Z,5.80
2023-03-13T10:02:53.889Z,6.35
2023-03-13T10:04:09.165Z,6.22
2023-03-13T10:05:27.201Z,4.88
2023-03-13T10:06:49.058Z,6.15
2023-03-13T10:07:56.852Z,6.20
2023-03-13T10:09:02.221Z,7.75
2023-03-13T10:10:17.966Z,5.43
2023-03-13T10:11:35.427Z,6.65
2023-03-13T10:12:52.643Z,5.90
2023-03-13T10:14:04.481Z,6.85
2023-03-13T10:15:37.385Z,4.93
2023-03-13T10:16:48.668Z,6.50
2023-03-13T10:17:54.167Z,6.20
2023-03-13T10:19:09.699Z,7.15
2023-03-13T10:20:25.832Z,5.85
2023-03-13T10:21:36.715Z,6.70
2023-03-13T10:22:50.793Z,4.53
2023-03-13T10:24:04.174Z,7.70
2023-03-13T10:25:28.363Z,5.65
2023-03-13T10:26:37.900Z,5.47
2023-03-13T10:27:50.890Z,8.95
2023-03-13T10:28:55.644Z,6.50
2023-03-13T10:30:00.075Z,7.00
2023-03-13T10:31:33.684Z,7.05
2023-03-13T10:32:37.240Z,7.68
2023-03-13T10:33:40.972Z,6.75
2023-03-13T10:34:58.071Z,6.50
2023-03-13T10:36:07.361Z,8.57
2023-03-13T10:38:24.015Z,6.60
2023-03-13T10:39:30.299Z,8.15
2023-03-13T10:40:35.290Z,6.53
2023-03-13T10:41:39.256Z,6.22
2023-03-13T10:42:46.234Z,5.80
2023-03-13T10:43:55.767Z,7.93
2023-03-13T10:45:04.194Z,9.50
2023-03-13T10:46:12.277Z,7.32
2023-03-13T10:47:16.369Z,5.43
2023-03-13T10:48:27.485Z,8.43
2023-03-13T10:49:32.723Z,6.75
2023-03-13T10:50:40.492Z,7.35
2023-03-13T10:51:55.206Z,6.10
2023-03-13T10:53:18.586Z,5.70
2023-03-13T10:54:38.106Z,6.80
2023-03-13T10:55:44.846Z,7.38
2023-03-13T10:57:20.354Z,7.90
2023-03-13T10:58:33.717Z,7.68
2023-03-13T10:59:44.398Z,6.85
2023-03-13T11:00:49.485Z,5.60
2023-03-13T11:01:58.718Z,8.05
2023-03-13T11:03:05.648Z,6.43
2023-03-13T11:04:29.827Z,7.32
2023-03-13T11:05:43.324Z,8.50
2023-03-13T11:06:55.966Z,6.88
2023-03-13T11:08:13.240Z,7.55
2023-03-13T11:09:17.976Z,7.35
2023-03-13T11:10:32.753Z,6.57
2023-03-13T11:11:51.178Z,7.28
2023-03-13T11:12:56.506Z,6.55
2023-03-13T11:14:14.247Z,6.03
2023-03-13T11:15:21.292Z,5.43
2023-03-13T11:16:29.029Z,7.65
2023-03-13T11:17:37.928Z,9.93
2023-03-13T11:18:46.136Z,7.60
2023-03-13T11:20:23.898Z,6.53
2023-03-13T11:21:54.817Z,8.02
2023-03-13T11:23:24.803Z,7.28
2023-03-13T11:24:42.152Z,7.10
2023-03-13T11:25:59.672Z,12.10
2023-03-13T11:27:16.592Z,8.55
2023-03-13T11:28:42.589Z,7.57
2023-03-13T11:29:56.825Z,7.78
2023-03-13T11:31:23.615Z,7.00
2023-03-13T11:32:43.366Z,8.43
2023-03-13T11:33:57.667Z,10.77
2023-03-13T11:35:07.701Z,9.80
2023-03-13T11:36:25.830Z,9.02
2023-03-13T11:37:32.609Z,12.03
2023-03-13T11:38:42.769Z,8.32
2023-03-13T11:39:58.583Z,10.32
2023-03-13T11:41:15.854Z,10.40
2023-03-13T11:42:24.261Z,8.13
2023-03-13T11:43:57.210Z,7.63
2023-03-13T11:44:59.383Z,10.90
2023-03-13T11:46:16.203Z,7.68
2023-03-13T11:47:50.459Z,7.68
2023-03-13T11:49:52.275Z,8.90
2023-03-13T11:51:13.609Z,7.88
2023-03-13T11:52:19.087Z,8.10
2023-03-13T11:53:27.660Z,6.97
2023-03-13T11:55:04.196Z,6.60
2023-03-13T11:56:13.755Z,9.75
2023-03-13T11:58:00.280Z,7.68
2023-03-13T11:59:02.310Z,9.13
2023-03-13T12:00:31.643Z,8.88
2023-03-13T12:01:42.633Z,7.13
2023-03-13T12:03:17.681Z,11.13
2023-03-13T12:04:44.620Z,9.38
2023-03-13T12:05:59.341Z,8.90
2023-03-13T12:07:50.452Z,9.15
2023-03-13T12:09:10.491Z,9.30
2023-03-13T12:10:36.882Z,7.53
2023-03-13T12:12:06.358Z,8.95
2023-03-13T12:13:20.915Z,9.88
2023-03-13T12:14:29.178Z,7.57
2023-03-13T12:15:51.870Z,6.97
2023-03-13T12:17:00.274Z,7.60
2023-03-13T12:18:18.147Z,13.45
2023-03-13T12:19:30.974Z,8.75
2023-03-13T12:20:59.256Z,8.10
2023-03-13T12:22:34.533Z,6.93
2023-03-13T12:23:40.041Z,9.68
2023-03-13T12:24:54.136Z,11.15
2023-03-13T12:26:12.251Z,8.55
2023-03-13T12:27:49.762Z,9.20
2023-03-13T12:28:55.306Z,10.02
2023-03-13T12:30:06.531Z,7.80
2023-03-13T12:31:38.018Z,7.57
2023-03-13T12:33:03.836Z,8.77
2023-03-13T12:34:32.357Z,12.13
2023-03-13T12:35:36.793Z,8.90
2023-03-13T12:36:46.926Z,12.02
2023-03-13T12:38:26.488Z,11.98
2023-03-13T12:39:50.539Z,8.25
2023-03-13T12:41:08.883Z,14.00
2023-03-13T12:43:40.154Z,9.75
2023-03-13T12:44:43.283Z,7.10
2023-03-13T12:45:58.626Z,8.25
2023-03-13T12:47:33.379Z,11.55
2023-03-13T12:49:20.231Z,9.05
2023-03-13T12:50:42.727Z,10.48
2023-03-13T12:51:54.069Z,10.20
2023-03-13T12:53:19.060Z,9.70
2023-03-13T12:54:44.059Z,7.20
2023-03-13T12:56:11.207Z,8.73
2023-03-13T12:57:19.990Z,9.55
2023-03-13T12:58:52.039Z,8.63
2023-03-13T13:00:00.371Z,8.73
2023-03-13T13:01:06.630Z,7.95
2023-03-13T13:02:30.811Z,5.07
2023-03-13T13:03:47.671Z,6.57
2023-03-13T13:04:52.180Z,6.53
2023-03-13T13:06:03.050Z,6.85
2023-03-13T13:07:19.881Z,9.45
2023-03-13T13:08:27.018Z,9.57
2023-03-13T13:09:48.172Z,8.43
2023-03-13T13:10:50.244Z,5.95
2023-03-13T13:11:55.490Z,9.57
2023-03-13T13:13:16.336Z,9.32
2023-03-13T13:14:18.458Z,7.38
2023-03-13T13:15:26.692Z,6.70
2023-03-13T13:16:30.115Z,7.80
2023-03-13T13:17:54.253Z,8.68
2023-03-13T13:19:24.618Z,7.65
2023-03-13T13:20:26.746Z,11.10
2023-03-13T13:21:31.205Z,6.18
2023-03-13T13:22:38.816Z,5.45
2023-03-13T13:23:46.982Z,8.88
2023-03-13T13:24:52.259Z,6.22
2023-03-13T13:25:56.988Z,7.55
2023-03-13T13:26:59.166Z,6.97
2023-03-13T13:28:18.341Z,6.30
2023-03-13T13:29:20.971Z,8.05
2023-03-13T13:30:24.050Z,7.20
2023-03-13T13:31:50.923Z,6.20
2023-03-13T13:32:54.888Z,5.85
2023-03-13T13:33:58.416Z,6.05
2023-03-13T13:35:19.103Z,4.60
2023-03-13T13:36:24.216Z,5.95
2023-03-13T13:37:31.668Z,5.55
2023-03-13T13:38:38.124Z,5.95
2023-03-13T13:39:50.415Z,6.80
2023-03-13T13:41:05.634Z,4.63
2023-03-13T13:42:32.584Z,5.78
2023-03-13T13:43:37.109Z,4.38
2023-03-13T13:45:17.510Z,5.90
2023-03-13T13:46:33.893Z,8.68
2023-03-13T13:47:36.030Z,8.50
2023-03-13T13:48:41.835Z,8.15
2023-03-13T13:49:58.973Z,7.35
2023-03-13T13:51:15.191Z,6.60
2023-03-13T13:52:31.731Z,9.23
2023-03-13T13:53:57.737Z,8.80
2023-03-13T13:55:01.065Z,7.88
2023-03-13T13:56:25.186Z,10.68
2023-03-13T13:57:36.032Z,6.88
2023-03-13T13:58:44.605Z,10.20
2023-03-13T13:59:52.252Z,8.07
2023-03-13T14:00:56.742Z,7.85
2023-03-13T14:02:04.468Z,9.00
2023-03-13T14:03:19.356Z,5.55
2023-03-13T14:04:30.401Z,8.93
2023-03-13T14:05:33.637Z,7.28
2023-03-13T14:06:39.148Z,6.90
2023-03-13T14:07:41.460Z,7.85
2023-03-13T14:08:46.695Z,6.80
2023-03-13T14:09:52.424Z,7.03
2023-03-13T14:11:40.314Z,6.18
2023-03-13T14:12:51.958Z,5.68
2023-03-13T14:14:20.076Z,9.68
2023-03-13T14:15:28.800Z,6.78
2023-03-13T14:16:31.748Z,7.20
2023-03-13T14:17:53.987Z,6.00
2023-03-13T14:18:56.294Z,5.93
2023-03-13T14:20:00.896Z,5.20
2023-03-13T14:21:13.586Z,6.05
2023-03-13T14:22:17.847Z,5.40
2023-03-13T14:23:57.524Z,6.03
2023-03-13T14:24:59.812Z,6.40
2023-03-13T14:26:24.987Z,5.38
2023-03-13T14:27:27.653Z,8.23
2023-03-13T14:28:30.683Z,8.10
2023-03-13T14:29:34.993Z,5.28
2023-03-13T14:30:44.368Z,5.55
2023-03-13T14:33:02.170Z,6.93
2023-03-13T14:34:12.904Z,5.72
2023-03-13T14:35:19.610Z,7.68
2023-03-13T14:36:23.216Z,7.32
2023-03-13T14:37:42.327Z,5.65
2023-03-13T14:39:01.492Z,5.40
2023-03-13T14:40:19.599Z,5.85
2023-03-13T14:41:48.798Z,4.00
2023-03-13T14:42:53.527Z,5.93
2023-03-13T14:44:06.864Z,6.82
2023-03-13T14:45:36.131Z,6.47
2023-03-13T14:46:42.248Z,6.22
2023-03-13T14:47:44.398Z,5.40
2023-03-13T14:48:47.654Z,5.28
2023-03-13T14:49:57.234Z,4.40
2023-03-13T14:51:15.866Z,4.55
2023-03-13T14:53:27.802Z,3.67
2023-03-13T14:54:53.080Z,4.65
2023-03-13T14:56:13.065Z,5.07
2023-03-13T14:57:25.446Z,4.13
2023-03-13T14:58:30.648Z,6.32
2023-03-13T14:59:33.479Z,8.68
2023-03-13T15:00:42.755Z,5.93
2023-03-13T15:01:46.033Z,6.03
2023-03-13T15:02:48.476Z,8.13
2023-03-13T15:03:52.501Z,5.93
2023-03-13T15:05:11.960Z,5.72
2023-03-13T15:06:22.013Z,6.43
2023-03-13T15:07:27.428Z,7.60
2023-03-13T15:08:30.955Z,8.88
2023-03-13T15:09:42.708Z,6.53
2023-03-13T15:10:46.894Z,4.38
2023-03-13T15:11:59.859Z,6.22
2023-03-13T15:13:34.318Z,3.95
2023-03-13T15:14:42.394Z,5.40
2023-03-13T15:15:47.994Z,6.50
2023-03-13T15:16:50.477Z,5.63
2023-03-13T15:17:52.723Z,5.82
2023-03-13T15:18:56.356Z,4.13
2023-03-13T15:19:59.449Z,6.07
2023-03-13T15:21:13.422Z,4.80
2023-03-13T15:22:17.347Z,3.95
2023-03-13T15:23:21.059Z,6.10
2023-03-13T15:24:24.759Z,5.18
2023-03-13T15:25:29.290Z,3.60
2023-03-13T15:26:31.375Z,4.78
2023-03-13T15:27:33.861Z,6.03
2023-03-13T15:28:36.206Z,3.58
2023-03-13T15:29:38.500Z,3.55
2023-03-13T15:30:41.034Z,4.13
2023-03-13T15:31:44.217Z,9.98
2023-03-13T15:32:47.313Z,4.82
2023-03-13T15:33:54.923Z,5.78
2023-03-13T15:35:02.176Z,5.20
2023-03-13T15:36:04.671Z,5.15
2023-03-13T15:37:11.977Z,4.53
2023-03-13T15:38:18.042Z,5.45
2023-03-13T15:39:20.892Z,5.35
2023-03-13T15:40:24.564Z,4.70
2023-03-13T15:41:26.574Z,6.57
2023-03-13T15:42:28.671Z,4.30
2023-03-13T15:43:31.323Z,4.50
2023-03-13T15:44:33.353Z,6.28
2023-03-13T15:45:37.821Z,5.47
2023-03-13T15:46:40.047Z,6.05
2023-03-13T15:47:42.075Z,4.65
2023-03-13T15:48:44.068Z,6.57
2023-03-13T15:49:46.396Z,6.20
2023-03-13T15:50:52.904Z,5.95
2023-03-13T15:51:57.418Z,5.55
2023-03-13T15:53:04.165Z,4.03
2023-03-13T15:54:06.603Z,5.07
2023-03-13T15:55:10.220Z,4.80
2023-03-13T15:56:18.150Z,4.88
2023-03-13T15:57:24.201Z,6.57
2023-03-13T15:58:29.744Z,7.95
2023-03-13T15:59:31.686Z,6.97
2023-03-13T16:00:33.909Z,6.05
2023-03-13T16:01:35.877Z,6.30
2023-03-13T16:02:38.040Z,7.30
2023-03-13T16:03:40.976Z,6.57
2023-03-13T16:04:44.107Z,7.30
2023-03-13T16:05:48.125Z,7.88
2023-03-13T16:06:50.181Z,10.23
2023-03-13T16:07:52.182Z,10.13
2023-03-13T16:08:54.101Z,5.88
2023-03-13T16:09:55.994Z,6.57
2023-03-13T16:10:57.999Z,6.63
2023-03-13T16:12:00.188Z,6.65
2023-03-13T16:13:03.656Z,7.40
2023-03-13T16:14:05.519Z,5.72
2023-03-13T16:15:08.163Z,6.18
2023-03-13T16:16:20.609Z,6.97
2023-03-13T16:17:22.753Z,7.90
2023-03-13T16:18:25.509Z,6.10
2023-03-13T16:19:27.581Z,6.90
2023-03-13T16:20:32.267Z,8.45
2023-03-13T16:21:36.295Z,6.30
2023-03-13T16:22:38.208Z,8.57
2023-03-13T16:23:41.290Z,6.28
2023-03-13T16:24:43.372Z,5.78
2023-03-13T16:25:47.109Z,7.22
2023-03-13T16:26:49.126Z,5.47
2023-03-13T16:27:53.633Z,6.78
2023-03-13T16:28:55.784Z,5.05
2023-03-13T16:29:57.812Z,4.65
2023-03-13T16:30:59.894Z,6.00
2023-03-13T16:32:03.234Z,7.80
2023-03-13T16:33:05.226Z,5.72
2023-03-13T16:34:09.349Z,5.68
2023-03-13T16:35:11.595Z,5.85
2023-03-13T16:36:19.981Z,6.95
2023-03-13T16:37:22.699Z,7.70
2023-03-13T16:38:25.245Z,5.78
2023-03-13T16:39:27.252Z,5.88
2023-03-13T16:40:33.894Z,7.95
2023-03-13T16:41:37.439Z,7.53
2023-03-13T16:42:39.584Z,6.05
2023-03-13T16:43:41.716Z,6.15
2023-03-13T16:44:45.947Z,7.13
2023-03-13T16:45:48.299Z,8.93
2023-03-13T16:47:04.220Z,8.15
2023-03-13T16:48:07.212Z,6.65
2023-03-13T16:49:14.139Z,8.77
2023-03-13T16:50:26.944Z,7.63
2023-03-13T16:51:29.211Z,7.95
2023-03-13T16:52:31.129Z,8.02
2023-03-13T16:53:33.207Z,6.50
2023-03-13T16:54:35.304Z,12.05
2023-03-13T16:55:37.836Z,7.82
2023-03-13T16:56:43.273Z,8.05
2023-03-13T16:57:45.690Z,12.85
2023-03-13T16:58:48.056Z,8.93
2023-03-13T16:59:50.933Z,6.82
2023-03-13T17:01:04.676Z,6.90
2023-03-13T17:02:18.251Z,9.13
2023-03-13T17:03:20.387Z,9.25
2023-03-13T17:04:22.538Z,9.38
2023-03-13T17:05:28.554Z,13.75
2023-03-13T17:06:35.102Z,10.48
2023-03-13T17:07:37.007Z,9.73
2023-03-13T17:08:39.667Z,8.68
2023-03-13T17:09:41.577Z,9.63
2023-03-13T17:10:43.914Z,9.32
2023-03-13T17:11:45.913Z,6.90
2023-03-13T17:12:47.951Z,8.20
2023-03-13T17:13:51.982Z,10.00
2023-03-13T17:14:54.155Z,9.13
2023-03-13T17:15:56.219Z,8.52
2023-03-13T17:16:58.212Z,9.40
2023-03-13T17:18:00.553Z,9.00
2023-03-13T17:19:04.918Z,9.73
2023-03-13T17:20:09.866Z,7.75
2023-03-13T17:21:17.813Z,8.70
2023-03-13T17:22:20.116Z,12.80
2023-03-13T17:23:23.387Z,10.13
2023-03-13T17:24:25.362Z,7.47
2023-03-13T17:25:27.425Z,11.98
2023-03-13T17:26:33.757Z,12.98
2023-03-13T17:27:36.418Z,9.85
2023-03-13T17:28:38.326Z,9.77
2023-03-13T17:29:40.896Z,12.50
2023-03-13T17:30:43.016Z,15.93
2023-03-13T17:31:45.474Z,11.93
2023-03-13T17:32:48.342Z,20.33
2023-03-13T17:33:50.705Z,8.48
2023-03-13T17:34:52.769Z,10.18
2023-03-13T17:35:54.664Z,9.63
2023-03-13T17:36:56.769Z,9.10
2023-03-13T17:37:58.878Z,13.40
2023-03-13T17:39:05.498Z,10.80
2023-03-13T17:40:28.197Z,8.20
2023-03-13T17:41:33.875Z,9.32
2023-03-13T17:42:35.857Z,10.32
2023-03-13T17:43:38.318Z,7.75
2023-03-13T17:44:41.403Z,10.38
2023-03-13T17:45:43.421Z,7.85
2023-03-13T17:46:48.489Z,10.10
2023-03-13T17:47:50.648Z,10.95
2023-03-13T17:48:54.048Z,9.20
2023-03-13T17:49:56.035Z,11.80